createdAt,value
2018-09-20T00:00:25.860Z,3.63
2018-09-20T00:02:54.987Z,3.83
2018-09-20T00:05:23.861Z,4.00
2018-09-20T00:07:52.609Z,3.80
2018-09-20T00:10:25.359Z,3.70
2018-09-20T00:12:54.095Z,3.90
2018-09-20T00:15:22.832Z,3.60
2018-09-20T00:17:51.657Z,3.80
2018-09-20T00:20:20.526Z,4.30
2018-09-20T00:22:49.389Z,4.10
2018-09-20T00:25:18.377Z,4.20
2018-09-20T00:27:47.127Z,3.87
2018-09-20T00:32:51.193Z,3.60
2018-09-20T00:35:19.917Z,3.77
2018-09-20T00:37:48.829Z,4.00
2018-09-20T00:40:17.534Z,3.53
2018-09-20T00:42:46.321Z,3.67
2018-09-20T00:45:15.205Z,4.03
2018-09-20T00:47:44.086Z,3.93
2018-09-20T00:50:12.948Z,3.60
2018-09-20T00:52:41.779Z,3.73
2018-09-20T00:55:10.489Z,3.80
2018-09-20T00:57:39.259Z,3.57
2018-09-20T01:00:08.014Z,4.00
2018-09-20T01:02:36.957Z,3.53
2018-09-20T01:05:05.949Z,3.90
2018-09-20T01:07:34.685Z,3.53
2018-09-20T01:10:03.505Z,3.90
2018-09-20T01:12:32.278Z,4.27
2018-09-20T01:15:01.106Z,3.70
2018-09-20T01:17:29.831Z,3.77
2018-09-20T01:19:58.589Z,3.90
2018-09-20T01:22:27.311Z,4.30
2018-09-20T01:24:56.182Z,3.93
2018-09-20T01:27:25.116Z,4.00
2018-09-20T01:29:53.812Z,5.13
2018-09-20T01:32:22.542Z,4.30
2018-09-20T01:34:51.426Z,3.70
2018-09-20T01:37:20.284Z,3.90
2018-09-20T01:39:49.031Z,3.63
2018-09-20T01:42:17.820Z,4.07
2018-09-20T01:44:51.670Z,4.03
2018-09-20T01:47:20.418Z,3.43
2018-09-20T01:49:49.302Z,4.17
2018-09-20T01:52:18.159Z,4.23
2018-09-20T01:54:46.985Z,3.40
2018-09-20T01:57:15.768Z,3.80
2018-09-20T01:59:44.812Z,4.13
2018-09-20T02:05:05.893Z,3.87
2018-09-20T02:07:34.817Z,3.53
2018-09-20T02:10:03.574Z,3.93
2018-09-20T02:12:32.318Z,3.33
2018-09-20T02:15:01.090Z,3.60
2018-09-20T02:17:35.511Z,4.03
2018-09-20T02:20:04.383Z,3.93
2018-09-20T02:22:33.237Z,3.87
2018-09-20T02:25:02.041Z,4.10
2018-09-20T02:27:30.826Z,3.83
2018-09-20T02:29:59.642Z,3.97
2018-09-20T02:32:28.551Z,4.07
2018-09-20T02:34:57.260Z,3.63
2018-09-20T02:37:26.033Z,3.97
2018-09-20T02:39:54.854Z,4.13
2018-09-20T02:42:23.748Z,4.23
2018-09-20T02:44:52.549Z,4.27
2018-09-20T02:47:21.425Z,3.77
2018-09-20T02:49:50.306Z,4.60
2018-09-20T02:52:19.034Z,4.30
2018-09-20T02:54:47.836Z,4.33
2018-09-20T02:57:16.633Z,4.20
2018-09-20T02:59:45.449Z,4.53
2018-09-20T03:02:14.334Z,4.00
2018-09-20T03:04:43.037Z,3.97
2018-09-20T03:07:11.828Z,4.20
2018-09-20T03:09:41.155Z,4.27
2018-09-20T03:12:09.980Z,4.27
2018-09-20T03:14:38.782Z,4.27
2018-09-20T03:17:07.530Z,4.37
2018-09-20T03:19:36.410Z,4.07
2018-09-20T03:22:05.241Z,3.83
2018-09-20T03:24:34.072Z,3.93
2018-09-20T03:27:02.936Z,4.23
2018-09-20T03:29:31.818Z,4.70
2018-09-20T03:32:00.701Z,4.10
2018-09-20T03:34:29.771Z,4.30
2018-09-20T03:36:58.562Z,4.17
2018-09-20T03:39:27.334Z,4.30
2018-09-20T03:41:56.205Z,4.20
2018-09-20T03:44:27.131Z,4.10
2018-09-20T03:46:55.977Z,4.60
2018-09-20T03:49:24.758Z,4.53
2018-09-20T03:51:53.612Z,3.97
2018-09-20T03:54:22.417Z,4.27
2018-09-20T03:56:51.230Z,4.90
2018-09-20T03:59:19.937Z,4.70
2018-09-20T04:01:48.802Z,4.10
2018-09-20T04:04:17.673Z,4.50
2018-09-20T04:06:46.574Z,4.10
2018-09-20T04:09:15.336Z,4.00
2018-09-20T04:11:44.112Z,4.10
2018-09-20T04:14:12.836Z,4.57
2018-09-20T04:16:41.572Z,4.70
2018-09-20T04:19:10.404Z,4.40
2018-09-20T04:21:39.120Z,4.43
2018-09-20T04:24:07.953Z,4.07
2018-09-20T04:26:36.689Z,4.87
2018-09-20T04:29:05.490Z,4.50
2018-09-20T04:31:34.227Z,3.93
2018-09-20T04:34:03.110Z,3.60
2018-09-20T04:36:32.086Z,4.27
2018-09-20T04:39:00.849Z,4.03
2018-09-20T04:41:29.814Z,4.73
2018-09-20T04:43:58.618Z,4.07
2018-09-20T04:46:27.373Z,4.90
2018-09-20T04:48:56.141Z,4.50
2018-09-20T04:51:24.861Z,5.23
2018-09-20T04:53:53.616Z,4.70
2018-09-20T04:56:22.413Z,5.07
2018-09-20T04:58:51.129Z,4.90
2018-09-20T05:01:20.194Z,5.10
2018-09-20T05:03:49.115Z,6.00
2018-09-20T05:06:17.832Z,4.87
2018-09-20T05:08:46.768Z,4.57
2018-09-20T05:11:15.485Z,4.83
2018-09-20T05:13:44.405Z,4.80
2018-09-20T05:16:13.127Z,4.70
2018-09-20T05:18:41.863Z,4.80
2018-09-20T05:21:10.706Z,4.50
2018-09-20T05:23:39.525Z,4.63
2018-09-20T05:26:08.383Z,4.50
2018-09-20T05:28:37.153Z,4.90
2018-09-20T05:31:05.945Z,4.50
2018-09-20T05:33:34.857Z,4.67
2018-09-20T05:36:03.622Z,4.90
2018-09-20T05:38:32.352Z,4.57
2018-09-20T05:41:01.189Z,4.40
2018-09-20T05:43:29.962Z,4.53
2018-09-20T05:46:00.785Z,4.50
2018-09-20T05:48:29.761Z,4.60
2018-09-20T05:50:58.654Z,4.67
2018-09-20T05:53:27.501Z,4.13
2018-09-20T05:55:56.226Z,4.80
2018-09-20T05:58:25.133Z,4.63
2018-09-20T06:00:54.031Z,4.10
2018-09-20T06:03:23.146Z,4.97
2018-09-20T06:05:51.895Z,4.80
2018-09-20T06:08:20.585Z,4.40
2018-09-20T06:10:49.790Z,4.70
2018-09-20T06:13:18.795Z,4.40
2018-09-20T06:15:57.389Z,4.53
2018-09-20T06:18:30.135Z,4.70
2018-09-20T06:20:59.119Z,5.20
2018-09-20T06:23:27.853Z,5.27
2018-09-20T06:25:56.797Z,5.20
2018-09-20T06:28:25.590Z,5.03
2018-09-20T06:30:54.449Z,5.60
2018-09-20T06:33:23.225Z,6.00
2018-09-20T06:35:52.139Z,5.83
2018-09-20T06:38:20.951Z,5.90
2018-09-20T06:40:49.922Z,5.33
2018-09-20T06:43:25.474Z,5.30
2018-09-20T06:45:54.376Z,5.90
2018-09-20T06:48:31.887Z,4.73
2018-09-20T06:51:00.605Z,5.00
2018-09-20T06:53:29.356Z,5.53
2018-09-20T06:55:58.211Z,4.60
2018-09-20T06:58:27.134Z,4.63
2018-09-20T07:00:55.830Z,4.83
2018-09-20T07:03:24.786Z,4.60
2018-09-20T07:05:54.402Z,5.30
2018-09-20T07:08:29.497Z,4.50
2018-09-20T07:10:58.273Z,4.77
2018-09-20T07:13:26.990Z,4.70
2018-09-20T07:15:55.792Z,5.03
2018-09-20T07:18:24.629Z,5.20
2018-09-20T07:20:53.474Z,6.33
2018-09-20T07:23:22.437Z,5.50
2018-09-20T07:25:51.218Z,5.77
2018-09-20T07:28:20.022Z,4.73
2018-09-20T07:30:57.819Z,5.43
2018-09-20T07:33:26.528Z,5.00
2018-09-20T07:35:55.363Z,4.80
2018-09-20T07:38:24.372Z,4.27
2018-09-20T07:40:53.209Z,4.47
2018-09-20T07:43:22.059Z,4.17
2018-09-20T07:45:51.029Z,4.70
2018-09-20T07:48:20.447Z,5.07
2018-09-20T07:50:49.277Z,4.47
2018-09-20T07:53:18.337Z,4.70
2018-09-20T07:56:17.708Z,5.23
2018-09-20T07:58:46.622Z,5.30
2018-09-20T08:01:15.547Z,5.40
2018-09-20T08:03:44.457Z,4.80
2018-09-20T08:06:13.441Z,5.33
2018-09-20T08:08:42.453Z,4.77
2018-09-20T08:11:11.360Z,5.40
2018-09-20T08:13:40.401Z,5.50
2018-09-20T08:16:09.301Z,5.00
2018-09-20T08:18:38.276Z,5.27
2018-09-20T08:21:07.278Z,5.17
2018-09-20T08:23:36.186Z,4.47
2018-09-20T08:26:05.041Z,5.17
2018-09-20T08:28:33.883Z,5.50
2018-09-20T08:31:02.952Z,5.13
2018-09-20T08:33:35.969Z,4.40
2018-09-20T08:36:04.840Z,4.33
2018-09-20T08:38:33.719Z,4.47
2018-09-20T08:41:02.573Z,4.40
2018-09-20T08:43:31.585Z,4.73
2018-09-20T08:46:04.535Z,4.53
2018-09-20T08:48:33.569Z,4.93
2018-09-20T08:51:02.472Z,4.97
2018-09-20T08:53:31.375Z,5.10
2018-09-20T08:56:00.363Z,3.87
2018-09-20T08:58:32.899Z,4.27
2018-09-20T09:01:03.602Z,4.10
2018-09-20T09:03:32.587Z,3.90
2018-09-20T09:06:01.894Z,5.00
2018-09-20T09:08:30.982Z,4.10
2018-09-20T09:10:59.859Z,4.20
2018-09-20T09:13:28.730Z,4.00
2018-09-20T09:15:57.634Z,3.63
2018-09-20T09:18:26.541Z,4.53
2018-09-20T09:20:55.322Z,4.03
2018-09-20T09:23:24.189Z,5.10
2018-09-20T09:25:53.263Z,3.60
2018-09-20T09:28:24.342Z,3.87
2018-09-20T09:30:53.302Z,4.03
2018-09-20T09:33:22.296Z,4.67
2018-09-20T09:35:51.161Z,4.33
2018-09-20T09:38:20.001Z,4.03
2018-09-20T09:40:49.083Z,4.70
2018-09-20T09:43:18.063Z,3.70
2018-09-20T09:45:46.965Z,4.37
2018-09-20T09:48:16.141Z,4.87
2018-09-20T09:50:45.134Z,3.93
2018-09-20T09:53:14.049Z,3.37
2018-09-20T09:55:42.903Z,4.17
2018-09-20T09:58:11.722Z,4.40
2018-09-20T10:00:41.860Z,3.67
2018-09-20T10:03:10.846Z,3.80
2018-09-20T10:05:39.689Z,4.83
2018-09-20T10:08:08.654Z,4.23
2018-09-20T10:10:37.497Z,3.93
2018-09-20T10:13:06.474Z,5.10
2018-09-20T10:15:35.374Z,4.70
2018-09-20T10:18:04.301Z,4.00
2018-09-20T10:20:33.166Z,3.67
2018-09-20T10:23:08.611Z,4.67
2018-09-20T10:25:37.436Z,3.63
2018-09-20T10:28:06.539Z,3.63
2018-09-20T10:30:40.525Z,3.70
2018-09-20T10:33:09.458Z,3.40
2018-09-20T10:35:38.370Z,4.27
2018-09-20T10:38:12.448Z,4.20
2018-09-20T10:40:41.266Z,3.73
2018-09-20T10:43:10.158Z,3.87
2018-09-20T10:45:38.990Z,4.53
2018-09-20T10:48:07.864Z,4.20
2018-09-20T10:50:36.870Z,4.13
2018-09-20T10:53:05.845Z,3.57
2018-09-20T10:55:34.760Z,3.90
2018-09-20T10:58:03.735Z,3.60
2018-09-20T11:00:32.817Z,4.33
2018-09-20T11:03:01.820Z,3.60
2018-09-20T11:05:30.729Z,3.80
2018-09-20T11:07:59.691Z,3.43
2018-09-20T11:10:28.576Z,4.37
2018-09-20T11:12:57.717Z,4.07
2018-09-20T11:15:26.501Z,3.90
2018-09-20T11:17:55.421Z,4.40
2018-09-20T11:20:24.370Z,4.27
2018-09-20T11:22:53.318Z,3.40
2018-09-20T11:25:22.570Z,3.87
2018-09-20T11:27:51.524Z,4.20
2018-09-20T11:30:20.503Z,3.90
2018-09-20T11:32:49.437Z,3.57
2018-09-20T11:35:18.390Z,3.30
2018-09-20T11:37:47.465Z,3.87
2018-09-20T11:40:16.394Z,3.63
2018-09-20T11:42:45.305Z,3.30
2018-09-20T11:45:14.334Z,4.17
2018-09-20T11:47:43.363Z,3.70
2018-09-20T11:50:12.339Z,4.00
2018-09-20T11:52:41.410Z,3.00
2018-09-20T11:55:10.619Z,3.70
2018-09-20T11:57:39.500Z,3.47
2018-09-20T12:00:09.451Z,3.67
2018-09-20T12:02:38.610Z,3.50
2018-09-20T12:05:18.281Z,3.37
2018-09-20T12:07:47.132Z,3.40
2018-09-20T12:10:16.738Z,3.10
2018-09-20T12:12:45.711Z,3.47
2018-09-20T12:15:14.605Z,2.90
2018-09-20T12:17:43.522Z,3.20
2018-09-20T12:20:12.434Z,3.57
2018-09-20T12:22:41.399Z,3.20
2018-09-20T12:25:10.450Z,3.57
2018-09-20T12:27:45.581Z,3.07
2018-09-20T12:30:14.534Z,2.93
2018-09-20T12:32:43.478Z,2.90
2018-09-20T12:35:12.314Z,2.80
2018-09-20T12:37:41.245Z,3.60
2018-09-20T12:40:10.257Z,2.93
2018-09-20T12:42:39.250Z,3.47
2018-09-20T12:45:08.186Z,3.33
2018-09-20T12:47:37.138Z,3.10
2018-09-20T12:50:06.443Z,3.07
2018-09-20T12:52:35.320Z,3.30
2018-09-20T12:55:04.429Z,3.70
2018-09-20T12:57:33.277Z,3.43
2018-09-20T13:00:02.178Z,3.47
2018-09-20T13:02:34.134Z,3.53
2018-09-20T13:05:03.061Z,3.67
2018-09-20T13:07:32.021Z,3.20
2018-09-20T13:10:03.078Z,3.70
2018-09-20T13:12:31.843Z,3.60
2018-09-20T13:15:00.663Z,2.80
2018-09-20T13:17:29.565Z,3.10
2018-09-20T13:19:58.529Z,3.10
2018-09-20T13:22:27.645Z,3.50
2018-09-20T13:24:56.611Z,3.30
2018-09-20T13:27:31.653Z,3.60
2018-09-20T13:30:00.557Z,3.10
2018-09-20T13:32:29.575Z,2.87
2018-09-20T13:34:58.356Z,3.40
2018-09-20T13:37:27.221Z,2.93
2018-09-20T13:39:58.312Z,3.20
2018-09-20T13:42:27.193Z,2.63
2018-09-20T13:44:56.173Z,2.50
2018-09-20T13:47:25.132Z,2.53
2018-09-20T13:49:54.210Z,2.63
2018-09-20T13:52:25.213Z,2.40
2018-09-20T13:54:54.222Z,2.77
2018-09-20T13:57:23.073Z,2.57
2018-09-20T13:59:52.164Z,2.60
2018-09-20T14:02:21.201Z,2.20
2018-09-20T14:04:50.113Z,2.67
2018-09-20T14:07:19.045Z,2.47
2018-09-20T14:09:48.014Z,2.50
2018-09-20T14:12:17.060Z,2.70
2018-09-20T14:14:49.797Z,3.00
2018-09-20T14:17:18.734Z,2.40
2018-09-20T14:19:47.755Z,2.53
2018-09-20T14:22:16.858Z,2.47
2018-09-20T14:24:45.906Z,2.50
2018-09-20T14:27:14.845Z,2.33
2018-09-20T14:29:43.898Z,2.70
2018-09-20T14:32:13.034Z,2.87
2018-09-20T14:34:42.042Z,3.00
2018-09-20T14:37:11.102Z,2.40
2018-09-20T14:39:39.956Z,3.17
2018-09-20T14:42:09.373Z,2.57
2018-09-20T14:44:38.182Z,3.67
2018-09-20T14:47:07.106Z,2.97
2018-09-20T14:49:35.993Z,2.80
2018-09-20T14:52:04.901Z,3.07
2018-09-20T14:54:33.685Z,2.80
2018-09-20T14:57:02.637Z,3.10
2018-09-20T14:59:31.698Z,3.30
2018-09-20T15:02:00.627Z,2.90
2018-09-20T15:04:29.522Z,2.80
2018-09-20T15:06:58.432Z,3.17
2018-09-20T15:09:27.370Z,2.77
2018-09-20T15:11:56.346Z,2.50
2018-09-20T15:14:25.318Z,2.90
2018-09-20T15:16:54.210Z,2.90
2018-09-20T15:19:23.094Z,3.20
2018-09-20T15:21:51.971Z,3.03
2018-09-20T15:24:20.875Z,3.27
2018-09-20T15:26:49.990Z,3.30
2018-09-20T15:29:18.958Z,3.30
2018-09-20T15:31:47.889Z,3.17
2018-09-20T15:34:16.847Z,2.87
2018-09-20T15:36:45.892Z,2.93
2018-09-20T15:39:14.665Z,3.30
2018-09-20T15:41:43.556Z,3.23
2018-09-20T15:44:12.607Z,3.10
2018-09-20T15:46:41.609Z,3.37
2018-09-20T15:49:10.454Z,3.30
2018-09-20T15:51:39.329Z,3.40
2018-09-20T15:54:08.170Z,3.20
2018-09-20T15:56:36.973Z,3.00
2018-09-20T15:59:05.874Z,3.53
2018-09-20T16:01:34.762Z,3.13
2018-09-20T16:04:03.831Z,3.27
2018-09-20T16:06:33.458Z,2.90
2018-09-20T16:09:02.390Z,2.90
2018-09-20T16:11:31.313Z,3.30
2018-09-20T16:14:00.205Z,2.77
2018-09-20T16:16:29.251Z,3.27
2018-09-20T16:18:58.233Z,3.27
2018-09-20T16:21:33.518Z,3.13
2018-09-20T16:24:02.441Z,3.10
2018-09-20T16:26:31.230Z,2.70
2018-09-20T16:29:06.249Z,3.50
2018-09-20T16:33:52.490Z,3.53
2018-09-20T16:36:28.769Z,3.30
2018-09-20T16:39:05.141Z,3.07
2018-09-20T16:41:39.245Z,2.83
2018-09-20T16:44:08.245Z,3.17
2018-09-20T16:46:37.101Z,3.60
2018-09-20T16:49:05.979Z,2.83
2018-09-20T16:51:34.921Z,3.33
2018-09-20T16:54:03.774Z,2.67
2018-09-20T16:56:32.675Z,3.10
2018-09-20T16:59:01.541Z,2.77
2018-09-20T17:01:40.201Z,3.00
2018-09-20T17:04:09.121Z,2.73
2018-09-20T17:06:38.041Z,2.57
2018-09-20T17:09:07.657Z,2.93
2018-09-20T17:11:36.685Z,2.40
2018-09-20T17:14:05.677Z,2.40
2018-09-20T17:16:34.632Z,2.90
2018-09-20T17:19:09.585Z,2.57
2018-09-20T17:21:38.889Z,2.50
2018-09-20T17:24:08.061Z,2.90
2018-09-20T17:26:36.941Z,3.40
2018-09-20T17:29:05.998Z,3.10
2018-09-20T17:31:46.775Z,3.00
2018-09-20T17:34:15.660Z,2.57
2018-09-20T17:36:44.687Z,2.40
2018-09-20T17:39:14.412Z,2.33
2018-09-20T17:41:44.870Z,2.60
2018-09-20T17:44:14.800Z,2.50
2018-09-20T17:46:43.677Z,2.43
2018-09-20T17:49:12.546Z,2.50
2018-09-20T17:51:41.905Z,2.80
2018-09-20T17:54:11.033Z,2.57
2018-09-20T17:56:40.258Z,2.87
2018-09-20T17:59:13.015Z,2.37
2018-09-20T18:01:48.497Z,2.53
2018-09-20T18:04:17.428Z,2.60
2018-09-20T18:06:46.435Z,2.40
2018-09-20T18:09:16.518Z,5.90
2018-09-20T18:11:45.567Z,6.70
2018-09-20T18:14:15.822Z,9.23
2018-09-20T18:16:44.797Z,5.33
2018-09-20T18:19:13.626Z,3.87
2018-09-20T18:21:42.457Z,3.43
2018-09-20T18:24:11.394Z,3.60
2018-09-20T18:26:40.443Z,3.30
2018-09-20T18:29:13.501Z,3.60
2018-09-20T18:31:42.526Z,4.13
2018-09-20T18:34:11.550Z,3.83
2018-09-20T18:36:40.709Z,3.17
2018-09-20T18:39:12.294Z,3.00
2018-09-20T18:41:42.734Z,4.20
2018-09-20T18:44:11.777Z,3.00
2018-09-20T18:46:40.734Z,3.10
2018-09-20T18:49:09.682Z,3.10
2018-09-20T18:51:38.786Z,2.63
2018-09-20T18:54:09.822Z,2.80
2018-09-20T18:56:38.778Z,2.90
2018-09-20T18:59:07.918Z,2.90
2018-09-20T19:01:36.996Z,2.50
2018-09-20T19:04:06.085Z,3.73
2018-09-20T19:06:35.123Z,3.63
2018-09-20T19:09:06.132Z,3.17
2018-09-20T19:11:35.194Z,3.57
2018-09-20T19:14:04.089Z,2.90
2018-09-20T19:16:33.240Z,2.77
2018-09-20T19:19:02.210Z,2.70
2018-09-20T19:21:31.271Z,2.70
2018-09-20T19:24:00.366Z,2.60
2018-09-20T19:26:29.394Z,2.90
2018-09-20T19:28:58.630Z,2.60
2018-09-20T19:34:02.742Z,2.90
2018-09-20T19:36:31.527Z,3.00
2018-09-20T19:39:00.540Z,2.50
2018-09-20T19:41:30.248Z,2.90
2018-09-20T19:43:59.210Z,2.83
2018-09-20T19:46:28.301Z,3.47
2018-09-20T19:48:57.163Z,3.23
2018-09-20T19:51:26.183Z,2.73
2018-09-20T19:53:54.998Z,2.90
2018-09-20T19:56:23.934Z,3.13
2018-09-20T19:58:53.334Z,2.60
2018-09-20T20:01:22.377Z,3.07
2018-09-20T20:03:51.406Z,2.20
2018-09-20T20:06:20.329Z,3.30
2018-09-20T20:08:49.504Z,2.60
2018-09-20T20:11:18.457Z,3.10
2018-09-20T20:13:47.461Z,2.80
2018-09-20T20:16:16.422Z,2.83
2018-09-20T20:18:45.438Z,3.20
2018-09-20T20:21:14.369Z,3.13
2018-09-20T20:23:43.679Z,3.13
2018-09-20T20:26:12.786Z,3.30
2018-09-20T20:28:41.902Z,3.57
2018-09-20T20:31:10.610Z,3.20
2018-09-20T20:33:39.659Z,2.67
2018-09-20T20:36:20.407Z,2.83
2018-09-20T20:38:49.331Z,2.93
2018-09-20T20:41:18.207Z,3.20
2018-09-20T20:43:47.157Z,3.00
2018-09-20T20:46:16.151Z,2.90
2018-09-20T20:48:45.035Z,3.00
2018-09-20T20:51:13.966Z,3.47
2018-09-20T20:53:42.906Z,3.50
2018-09-20T20:56:13.947Z,3.10
2018-09-20T20:58:42.971Z,3.37
2018-09-20T21:01:15.968Z,3.40
2018-09-20T21:03:44.999Z,2.87
2018-09-20T21:06:13.965Z,2.70
2018-09-20T21:08:42.930Z,2.73
2018-09-20T21:11:11.740Z,2.80
2018-09-20T21:13:40.633Z,2.77
2018-09-20T21:16:09.543Z,2.87
2018-09-20T21:18:38.673Z,3.03
2018-09-20T21:21:07.606Z,3.00
2018-09-20T21:23:36.424Z,3.00
2018-09-20T21:26:05.245Z,2.80
2018-09-20T21:28:34.283Z,3.10
2018-09-20T21:31:03.189Z,2.87
2018-09-20T21:33:32.220Z,3.33
2018-09-20T21:36:01.014Z,3.33
2018-09-20T21:38:29.856Z,3.30
2018-09-20T21:40:58.953Z,2.67
2018-09-20T21:43:27.880Z,2.77
2018-09-20T21:45:56.749Z,3.40
2018-09-20T21:48:25.709Z,3.50
2018-09-20T21:50:54.556Z,3.33
2018-09-20T21:53:23.507Z,2.77
2018-09-20T21:55:54.177Z,2.97
2018-09-20T21:58:23.161Z,3.10
2018-09-20T22:00:56.335Z,4.17
2018-09-20T22:03:25.160Z,3.30
2018-09-20T22:05:54.005Z,3.40
2018-09-20T22:08:22.858Z,3.90
2018-09-20T22:10:51.929Z,4.20
2018-09-20T22:13:20.723Z,4.30
2018-09-20T22:15:49.951Z,3.80
2018-09-20T22:18:18.840Z,3.03
2018-09-20T22:20:47.809Z,3.93
2018-09-20T22:23:16.689Z,3.40
2018-09-20T22:25:45.573Z,3.70
2018-09-20T22:28:18.427Z,4.30
2018-09-20T22:30:47.365Z,3.83
2018-09-20T22:33:16.378Z,4.40
2018-09-20T22:35:45.319Z,4.80
2018-09-20T22:38:14.146Z,4.97
2018-09-20T22:40:43.150Z,4.00
2018-09-20T22:43:12.106Z,4.77
2018-09-20T22:45:41.040Z,4.03
2018-09-20T22:48:09.926Z,3.70
2018-09-20T22:50:38.789Z,3.13
2018-09-20T22:53:07.765Z,2.93
2018-09-20T22:55:36.742Z,3.70
2018-09-20T22:58:05.768Z,3.57
2018-09-20T23:00:34.602Z,3.70
2018-09-20T23:03:03.502Z,4.03
2018-09-20T23:05:32.373Z,4.67
2018-09-20T23:08:01.174Z,3.83
2018-09-20T23:10:30.079Z,3.43
2018-09-20T23:12:59.030Z,4.27
2018-09-20T23:15:28.236Z,3.70
2018-09-20T23:17:59.150Z,4.13
2018-09-20T23:20:28.029Z,4.03
2018-09-20T23:22:56.853Z,4.00
2018-09-20T23:25:25.750Z,3.67
2018-09-20T23:27:54.614Z,3.93
2018-09-20T23:30:23.524Z,3.97
2018-09-20T23:32:52.599Z,3.27
2018-09-20T23:35:21.469Z,3.20
2018-09-20T23:37:50.508Z,3.60
2018-09-20T23:40:19.604Z,3.07
2018-09-20T23:42:48.501Z,3.33
2018-09-20T23:45:17.379Z,3.60
2018-09-20T23:47:46.225Z,4.00
2018-09-20T23:50:15.270Z,3.53
2018-09-20T23:52:44.196Z,3.67
2018-09-20T23:55:13.150Z,3.43
2018-09-20T23:57:42.020Z,3.27
